createdAt,value
2018-06-19T00:00:12.516Z,16.10
2018-06-19T00:02:41.368Z,16.07
2018-06-19T00:05:10.246Z,16.13
2018-06-19T00:07:39.116Z,16.06
2018-06-19T00:10:07.985Z,16.02
2018-06-19T00:12:36.916Z,15.93
2018-06-19T00:15:05.851Z,15.93
2018-06-19T00:17:35.500Z,15.91
2018-06-19T00:20:04.498Z,15.87
2018-06-19T00:22:33.431Z,16.24
2018-06-19T00:25:02.292Z,16.02
2018-06-19T00:27:31.137Z,16.09
2018-06-19T00:30:00.005Z,16.01
2018-06-19T00:32:28.859Z,15.85
2018-06-19T00:34:57.695Z,16.06
2018-06-19T00:37:26.536Z,16.04
2018-06-19T00:39:55.386Z,16.06
2018-06-19T00:42:24.422Z,16.09
2018-06-19T00:44:53.264Z,16.16
2018-06-19T00:47:22.123Z,16.53
2018-06-19T00:49:51.017Z,16.28
2018-06-19T00:52:19.904Z,16.22
2018-06-19T00:54:48.769Z,16.35
2018-06-19T00:57:17.686Z,16.29
2018-06-19T00:59:46.550Z,16.24
2018-06-19T01:02:15.404Z,16.26
2018-06-19T01:04:44.291Z,16.71
2018-06-19T01:07:13.117Z,16.45
2018-06-19T01:09:41.992Z,16.45
2018-06-19T01:12:10.844Z,16.44
2018-06-19T01:14:39.731Z,16.21
2018-06-19T01:17:08.613Z,16.36
2018-06-19T01:19:37.484Z,16.42
2018-06-19T01:22:06.370Z,16.42
2018-06-19T01:24:35.198Z,16.49
2018-06-19T01:27:04.066Z,16.52
2018-06-19T01:29:32.946Z,16.44
2018-06-19T01:32:01.786Z,16.49
2018-06-19T01:34:30.619Z,16.47
2018-06-19T01:36:59.450Z,16.50
2018-06-19T01:39:28.280Z,16.47
2018-06-19T01:41:57.152Z,16.55
2018-06-19T01:44:25.986Z,16.58
2018-06-19T01:46:54.884Z,16.50
2018-06-19T01:49:59.672Z,16.50
2018-06-19T01:52:28.557Z,16.55
2018-06-19T01:54:57.390Z,16.60
2018-06-19T01:57:26.284Z,16.53
2018-06-19T01:59:55.144Z,16.60
2018-06-19T02:02:23.979Z,16.55
2018-06-19T02:04:52.837Z,16.58
2018-06-19T02:07:21.683Z,16.58
2018-06-19T02:09:50.548Z,16.64
2018-06-19T02:12:19.593Z,16.55
2018-06-19T02:14:48.467Z,16.59
2018-06-19T02:17:17.323Z,16.52
2018-06-19T02:19:46.204Z,16.59
2018-06-19T02:22:15.066Z,16.64
2018-06-19T02:24:43.944Z,16.53
2018-06-19T02:27:12.791Z,16.49
2018-06-19T02:29:41.653Z,16.53
2018-06-19T02:32:10.520Z,16.60
2018-06-19T02:34:39.680Z,16.64
2018-06-19T02:37:08.554Z,16.56
2018-06-19T02:39:37.415Z,16.59
2018-06-19T02:42:06.310Z,16.57
2018-06-19T02:44:35.168Z,16.64
2018-06-19T02:47:04.038Z,16.68
2018-06-19T02:49:32.889Z,16.65
2018-06-19T02:52:01.785Z,16.51
2018-06-19T02:54:31.239Z,16.66
2018-06-19T02:57:00.199Z,16.57
2018-06-19T02:59:29.067Z,16.66
2018-06-19T03:01:57.938Z,16.63
2018-06-19T03:04:26.837Z,16.64
2018-06-19T03:06:55.808Z,16.71
2018-06-19T03:09:24.731Z,16.69
2018-06-19T03:11:53.546Z,16.68
2018-06-19T03:14:22.421Z,16.67
2018-06-19T03:16:51.297Z,16.66
2018-06-19T03:19:20.207Z,16.73
2018-06-19T03:21:49.065Z,16.70
2018-06-19T03:24:17.899Z,16.67
2018-06-19T03:26:46.772Z,16.63
2018-06-19T03:29:15.660Z,16.64
2018-06-19T03:31:44.556Z,16.69
2018-06-19T03:34:13.460Z,16.73
2018-06-19T03:36:42.429Z,16.70
2018-06-19T03:39:12.168Z,16.62
2018-06-19T03:41:44.225Z,16.59
2018-06-19T03:44:13.107Z,16.60
2018-06-19T03:46:42.087Z,16.65
2018-06-19T03:49:10.981Z,16.70
2018-06-19T03:51:39.864Z,16.71
2018-06-19T03:54:08.759Z,16.66
2018-06-19T03:56:37.651Z,16.66
2018-06-19T03:59:06.536Z,16.65
2018-06-19T04:01:35.538Z,16.68
2018-06-19T04:04:04.421Z,16.63
2018-06-19T04:06:33.312Z,16.70
2018-06-19T04:09:04.944Z,16.62
2018-06-19T04:11:33.858Z,16.71
2018-06-19T04:14:02.740Z,16.66
2018-06-19T04:16:31.686Z,16.66
2018-06-19T04:19:00.626Z,17.02
2018-06-19T04:21:29.539Z,16.72
2018-06-19T04:23:58.415Z,16.70
2018-06-19T04:26:27.300Z,16.75
2018-06-19T04:28:56.154Z,16.75
2018-06-19T04:31:24.992Z,16.82
2018-06-19T04:33:53.891Z,16.84
2018-06-19T04:36:22.756Z,16.83
2018-06-19T04:38:51.624Z,16.89
2018-06-19T04:41:20.495Z,16.83
2018-06-19T04:43:49.374Z,16.87
2018-06-19T04:46:21.104Z,16.87
2018-06-19T04:48:49.999Z,16.88
2018-06-19T04:51:18.871Z,16.89
2018-06-19T04:53:47.737Z,16.87
2018-06-19T04:56:16.646Z,16.92
2018-06-19T04:58:45.432Z,16.96
2018-06-19T05:01:14.321Z,17.00
2018-06-19T05:03:43.271Z,17.34
2018-06-19T05:06:12.047Z,17.20
2018-06-19T05:08:41.025Z,16.92
2018-06-19T05:11:09.897Z,16.91
2018-06-19T05:13:38.786Z,17.03
2018-06-19T05:16:07.694Z,16.97
2018-06-19T05:18:36.574Z,17.01
2018-06-19T05:21:05.482Z,17.00
2018-06-19T05:23:34.353Z,16.94
2018-06-19T05:26:03.314Z,17.04
2018-06-19T05:28:32.166Z,17.34
2018-06-19T05:31:03.974Z,17.12
2018-06-19T05:33:32.821Z,17.11
2018-06-19T05:36:01.662Z,17.14
2018-06-19T05:38:30.522Z,17.14
2018-06-19T05:40:59.366Z,17.10
2018-06-19T05:43:28.247Z,17.15
2018-06-19T05:45:57.131Z,17.18
2018-06-19T05:48:25.999Z,17.20
2018-06-19T05:50:54.949Z,17.26
2018-06-19T05:53:26.708Z,17.18
2018-06-19T05:55:55.576Z,17.31
2018-06-19T05:58:24.429Z,17.33
2018-06-19T06:00:53.321Z,17.36
2018-06-19T06:03:22.169Z,17.37
2018-06-19T06:05:51.191Z,17.46
2018-06-19T06:08:20.022Z,17.44
2018-06-19T06:10:48.913Z,17.45
2018-06-19T06:13:17.850Z,17.47
2018-06-19T06:15:46.943Z,17.82
2018-06-19T06:18:15.830Z,17.63
2018-06-19T06:20:44.930Z,17.59
2018-06-19T06:23:13.788Z,17.57
2018-06-19T06:25:42.679Z,17.52
2018-06-19T06:28:11.510Z,17.49
2018-06-19T06:30:40.417Z,17.54
2018-06-19T06:33:09.503Z,17.50
2018-06-19T06:35:38.393Z,17.46
2018-06-19T06:38:07.237Z,17.54
2018-06-19T06:40:36.196Z,17.58
2018-06-19T06:43:05.079Z,17.63
2018-06-19T06:45:33.908Z,17.61
2018-06-19T06:48:02.795Z,17.62
2018-06-19T06:50:31.780Z,17.70
2018-06-19T06:53:00.577Z,17.79
2018-06-19T06:55:29.449Z,17.78
2018-06-19T06:57:58.502Z,17.73
2018-06-19T07:00:27.367Z,17.82
2018-06-19T07:02:56.295Z,17.91
2018-06-19T07:05:25.108Z,17.87
2018-06-19T07:07:54.008Z,17.91
2018-06-19T07:10:22.842Z,17.87
2018-06-19T07:12:51.728Z,17.98
2018-06-19T07:15:21.424Z,18.03
2018-06-19T07:17:50.377Z,18.09
2018-06-19T07:20:19.512Z,18.22
2018-06-19T07:22:48.450Z,18.24
2018-06-19T07:25:17.410Z,18.28
2018-06-19T07:27:46.332Z,18.40
2018-06-19T07:30:15.194Z,18.41
2018-06-19T07:32:44.084Z,18.48
2018-06-19T07:35:12.939Z,18.44
2018-06-19T07:37:41.928Z,18.60
2018-06-19T07:40:11.106Z,18.66
2018-06-19T07:42:40.099Z,18.74
2018-06-19T07:45:08.961Z,18.90
2018-06-19T07:47:37.836Z,19.07
2018-06-19T07:50:06.716Z,19.16
2018-06-19T07:52:35.663Z,19.30
2018-06-19T07:55:04.541Z,19.39
2018-06-19T07:57:33.396Z,19.38
2018-06-19T08:00:05.121Z,19.42
2018-06-19T08:02:33.950Z,19.49
2018-06-19T08:05:02.840Z,19.85
2018-06-19T08:07:31.737Z,19.56
2018-06-19T08:10:00.706Z,19.49
2018-06-19T08:12:29.630Z,19.66
2018-06-19T08:14:58.591Z,19.68
2018-06-19T08:17:27.465Z,19.66
2018-06-19T08:19:56.393Z,19.52
2018-06-19T08:22:25.294Z,20.05
2018-06-19T08:24:54.306Z,19.87
2018-06-19T08:27:23.169Z,19.77
2018-06-19T08:29:55.248Z,20.24
2018-06-19T08:32:24.215Z,20.03
2018-06-19T08:34:53.014Z,19.94
2018-06-19T08:37:21.909Z,19.87
2018-06-19T08:39:50.809Z,19.86
2018-06-19T08:42:19.705Z,19.91
2018-06-19T08:44:48.670Z,19.86
2018-06-19T08:47:17.597Z,19.93
2018-06-19T08:49:46.458Z,19.93
2018-06-19T08:52:15.347Z,19.94
2018-06-19T08:54:44.200Z,20.03
2018-06-19T08:57:13.424Z,20.07
2018-06-19T08:59:42.548Z,20.04
2018-06-19T09:02:11.532Z,20.03
2018-06-19T09:04:42.172Z,19.96
2018-06-19T09:07:18.444Z,19.85
2018-06-19T09:09:47.397Z,19.82
2018-06-19T09:12:16.482Z,19.88
2018-06-19T09:14:45.304Z,19.83
2018-06-19T09:17:14.495Z,19.84
2018-06-19T09:19:45.178Z,19.89
2018-06-19T09:22:14.225Z,19.94
2018-06-19T09:24:43.116Z,19.95
2018-06-19T09:27:12.063Z,19.87
2018-06-19T09:29:41.358Z,19.88
2018-06-19T09:32:11.387Z,19.86
2018-06-19T09:34:45.212Z,19.84
2018-06-19T09:37:13.798Z,19.75
2018-06-19T09:39:46.127Z,19.82
2018-06-19T09:42:19.912Z,19.88
2018-06-19T09:44:53.903Z,19.79
2018-06-19T09:47:22.557Z,19.87
2018-06-19T09:49:56.480Z,20.03
2018-06-19T09:52:29.480Z,20.13
2018-06-19T09:55:02.593Z,20.33
2018-06-19T09:57:36.558Z,20.56
2018-06-19T10:00:08.798Z,20.76
2018-06-19T10:02:38.040Z,20.92
2018-06-19T10:05:07.211Z,21.18
2018-06-19T10:07:36.078Z,21.16
2018-06-19T10:10:05.120Z,20.85
2018-06-19T10:12:37.846Z,20.76
2018-06-19T10:15:06.813Z,20.73
2018-06-19T10:17:37.741Z,20.58
2018-06-19T10:20:05.875Z,20.67
2018-06-19T10:22:40.843Z,20.69
2018-06-19T10:25:10.139Z,20.60
2018-06-19T10:27:41.380Z,20.54
2018-06-19T10:30:10.268Z,20.42
2018-06-19T10:32:39.174Z,20.36
2018-06-19T10:35:08.064Z,20.33
2018-06-19T10:37:40.013Z,20.16
2018-06-19T10:40:08.947Z,20.07
2018-06-19T10:42:37.887Z,20.12
2018-06-19T10:45:06.768Z,20.15
2018-06-19T10:47:35.722Z,20.26
2018-06-19T10:50:04.664Z,20.46
2018-06-19T10:52:33.765Z,20.73
2018-06-19T10:55:02.624Z,21.17
2018-06-19T10:57:31.559Z,21.44
2018-06-19T11:00:06.067Z,21.50
2018-06-19T11:02:36.628Z,21.46
2018-06-19T11:05:06.548Z,21.39
2018-06-19T11:07:37.985Z,21.34
2018-06-19T11:10:05.709Z,21.21
2018-06-19T11:12:35.777Z,21.35
2018-06-19T11:15:07.668Z,21.71
2018-06-19T11:17:39.026Z,22.10
2018-06-19T11:20:08.518Z,22.08
2018-06-19T11:22:37.750Z,22.40
2018-06-19T11:25:07.876Z,22.59
2018-06-19T11:27:41.084Z,22.94
2018-06-19T11:30:10.959Z,23.13
2018-06-19T11:32:45.394Z,23.05
2018-06-19T11:35:13.107Z,22.96
2018-06-19T11:37:43.913Z,22.78
2018-06-19T11:40:13.474Z,22.55
2018-06-19T11:42:42.619Z,22.53
2018-06-19T11:45:14.166Z,22.58
2018-06-19T11:47:47.019Z,22.69
2018-06-19T11:50:19.389Z,23.16
2018-06-19T11:53:01.241Z,23.11
2018-06-19T11:55:30.230Z,23.25
2018-06-19T11:58:00.069Z,23.25
2018-06-19T12:00:27.254Z,23.01
2018-06-19T12:02:56.480Z,22.69
2018-06-19T12:05:26.314Z,22.90
2018-06-19T12:08:01.572Z,22.40
2018-06-19T12:10:33.448Z,22.57
2018-06-19T12:13:02.329Z,22.18
2018-06-19T12:15:31.195Z,22.20
2018-06-19T12:18:00.131Z,22.22
2018-06-19T12:20:29.041Z,22.34
2018-06-19T12:22:57.954Z,22.52
2018-06-19T12:25:26.802Z,22.83
2018-06-19T12:27:57.335Z,23.04
2018-06-19T12:30:26.172Z,23.23
2018-06-19T12:32:55.103Z,23.17
2018-06-19T12:35:25.757Z,22.98
2018-06-19T12:37:52.835Z,22.97
2018-06-19T12:40:26.333Z,23.04
2018-06-19T12:42:55.266Z,22.95
2018-06-19T12:45:24.064Z,22.85
2018-06-19T12:47:52.947Z,22.49
2018-06-19T12:50:58.464Z,22.46
2018-06-19T12:54:03.605Z,22.32
2018-06-19T12:56:44.612Z,22.15
2018-06-19T12:59:06.978Z,22.06
2018-06-19T13:01:35.903Z,22.01
2018-06-19T13:04:41.597Z,22.02
2018-06-19T13:07:10.564Z,21.94
2018-06-19T13:09:39.576Z,21.97
2018-06-19T13:13:04.856Z,21.96
2018-06-19T13:15:33.817Z,21.89
2018-06-19T13:18:40.582Z,21.89
2018-06-19T13:21:09.452Z,21.93
2018-06-19T13:23:38.416Z,21.88
2018-06-19T13:26:07.397Z,21.82
2018-06-19T13:29:20.869Z,21.81
2018-06-19T13:31:53.219Z,21.75
2018-06-19T13:34:22.056Z,21.96
2018-06-19T13:36:50.938Z,22.04
2018-06-19T13:39:20.546Z,21.80
2018-06-19T13:42:42.001Z,21.73
2018-06-19T13:45:12.928Z,21.63
2018-06-19T13:47:44.124Z,21.65
2018-06-19T13:50:13.012Z,21.73
2018-06-19T13:52:43.402Z,21.83
2018-06-19T13:55:51.073Z,21.98
2018-06-19T13:58:24.234Z,22.02
2018-06-19T14:00:53.124Z,22.00
2018-06-19T14:03:22.022Z,22.09
2018-06-19T14:05:50.885Z,22.24
2018-06-19T14:08:54.829Z,22.38
2018-06-19T14:12:18.109Z,22.58
2018-06-19T14:14:46.925Z,22.50
2018-06-19T14:17:15.794Z,22.58
2018-06-19T14:19:58.203Z,22.89
2018-06-19T14:22:26.350Z,22.71
2018-06-19T14:24:55.447Z,22.73
2018-06-19T14:27:24.566Z,22.77
2018-06-19T14:29:53.467Z,22.81
2018-06-19T14:32:22.379Z,22.74
2018-06-19T14:35:09.097Z,22.71
2018-06-19T14:37:37.947Z,22.70
2018-06-19T14:40:06.991Z,22.59
2018-06-19T14:42:36.192Z,22.51
2018-06-19T14:45:05.843Z,22.71
2018-06-19T14:47:34.693Z,22.51
2018-06-19T14:50:03.546Z,22.49
2018-06-19T14:52:32.414Z,22.45
2018-06-19T14:55:01.327Z,22.41
2018-06-19T14:57:30.276Z,22.34
2018-06-19T14:59:59.380Z,22.32
2018-06-19T15:02:28.205Z,22.28
2018-06-19T15:04:57.079Z,22.19
2018-06-19T15:07:25.945Z,22.53
2018-06-19T15:09:54.829Z,22.41
2018-06-19T15:12:23.593Z,22.44
2018-06-19T15:14:52.468Z,22.58
2018-06-19T15:17:21.433Z,22.62
2018-06-19T15:19:53.370Z,22.74
2018-06-19T15:22:22.236Z,22.84
2018-06-19T15:24:51.100Z,22.90
2018-06-19T15:27:20.020Z,22.91
2018-06-19T15:29:48.888Z,22.98
2018-06-19T15:32:17.746Z,22.98
2018-06-19T15:34:46.594Z,22.98
2018-06-19T15:37:15.481Z,22.90
2018-06-19T15:39:45.533Z,22.87
2018-06-19T15:42:19.550Z,22.82
2018-06-19T15:44:52.295Z,22.70
2018-06-19T15:47:23.509Z,22.65
2018-06-19T15:49:57.750Z,22.57
2018-06-19T15:52:30.106Z,22.54
2018-06-19T15:55:04.661Z,22.52
2018-06-19T15:57:36.183Z,22.45
2018-06-19T16:00:05.371Z,22.40
2018-06-19T16:02:34.286Z,22.37
2018-06-19T16:05:03.272Z,22.33
2018-06-19T16:07:32.164Z,22.30
2018-06-19T16:10:01.020Z,22.29
2018-06-19T16:12:29.842Z,22.26
2018-06-19T16:14:58.865Z,22.31
2018-06-19T16:17:27.677Z,22.31
2018-06-19T16:19:56.587Z,22.27
2018-06-19T16:22:25.503Z,22.29
2018-06-19T16:24:57.133Z,22.32
2018-06-19T16:27:25.994Z,22.36
2018-06-19T16:29:54.917Z,22.42
2018-06-19T16:32:23.742Z,22.47
2018-06-19T16:34:52.622Z,22.46
2018-06-19T16:37:21.449Z,22.47
2018-06-19T16:39:50.284Z,22.44
2018-06-19T16:42:19.391Z,22.42
2018-06-19T16:44:48.282Z,22.41
2018-06-19T16:47:18.693Z,22.35
2018-06-19T16:49:50.879Z,22.30
2018-06-19T16:52:25.583Z,22.25
2018-06-19T16:54:54.647Z,22.22
2018-06-19T16:57:23.507Z,22.17
2018-06-19T16:59:52.498Z,22.16
2018-06-19T17:02:21.507Z,22.13
2018-06-19T17:04:50.385Z,22.06
2018-06-19T17:07:19.302Z,22.01
2018-06-19T17:09:48.161Z,22.02
2018-06-19T17:12:17.064Z,21.97
2018-06-19T17:14:46.243Z,21.94
2018-06-19T17:17:15.113Z,21.86
2018-06-19T17:19:43.997Z,21.85
2018-06-19T17:22:12.924Z,21.82
2018-06-19T17:24:41.847Z,21.83
2018-06-19T17:27:10.981Z,21.77
2018-06-19T17:29:41.234Z,21.68
2018-06-19T17:32:10.203Z,21.70
2018-06-19T17:34:39.094Z,21.70
2018-06-19T17:37:08.020Z,22.04
2018-06-19T17:39:36.945Z,22.21
2018-06-19T17:42:06.043Z,21.97
2018-06-19T17:44:34.960Z,21.90
2018-06-19T17:47:06.138Z,21.87
2018-06-19T17:49:40.959Z,21.89
2018-06-19T17:52:11.206Z,21.73
2018-06-19T17:54:40.124Z,21.75
2018-06-19T17:57:09.022Z,21.75
2018-06-19T17:59:41.010Z,21.73
2018-06-19T18:02:10.011Z,21.73
2018-06-19T18:04:39.746Z,22.02
2018-06-19T18:07:08.515Z,21.72
2018-06-19T18:09:39.038Z,21.65
2018-06-19T18:12:07.956Z,21.54
2018-06-19T18:14:36.899Z,21.52
2018-06-19T18:17:05.806Z,21.50
2018-06-19T18:19:34.708Z,21.48
2018-06-19T18:22:03.603Z,21.38
2018-06-19T18:24:32.498Z,21.29
2018-06-19T18:27:01.426Z,21.28
2018-06-19T18:29:30.382Z,21.27
2018-06-19T18:31:59.255Z,21.29
2018-06-19T18:34:28.212Z,21.29
2018-06-19T18:36:57.233Z,21.23
2018-06-19T18:39:26.261Z,21.17
2018-06-19T18:41:55.397Z,21.47
2018-06-19T18:44:24.255Z,21.21
2018-06-19T18:46:56.017Z,21.14
2018-06-19T18:49:29.753Z,21.14
2018-06-19T18:52:09.373Z,21.04
2018-06-19T18:54:36.327Z,20.98
2018-06-19T18:57:05.356Z,20.92
2018-06-19T18:59:39.178Z,20.87
2018-06-19T19:02:08.148Z,21.24
2018-06-19T19:04:37.138Z,21.04
2018-06-19T19:07:09.052Z,21.03
2018-06-19T19:09:38.098Z,21.00
2018-06-19T19:12:10.160Z,20.87
2018-06-19T19:14:56.986Z,20.88
2018-06-19T19:17:43.727Z,20.81
2018-06-19T19:20:12.629Z,20.82
2018-06-19T19:22:41.497Z,20.80
2018-06-19T19:25:10.446Z,20.80
2018-06-19T19:27:57.474Z,20.83
2018-06-19T19:30:26.350Z,20.80
2018-06-19T19:32:55.489Z,20.79
2018-06-19T19:35:24.471Z,20.79
2018-06-19T19:38:11.054Z,20.78
2018-06-19T19:40:43.018Z,20.76
2018-06-19T19:43:11.948Z,20.73
2018-06-19T19:45:43.570Z,20.74
2018-06-19T19:48:30.381Z,20.75
2018-06-19T19:50:59.807Z,20.73
2018-06-19T19:53:31.948Z,20.72
2018-06-19T19:56:18.448Z,20.71
2018-06-19T19:58:51.056Z,20.69
2018-06-19T20:01:19.988Z,20.68
2018-06-19T20:03:49.231Z,20.98
2018-06-19T20:06:18.204Z,20.77
2018-06-19T20:08:47.157Z,20.75
2018-06-19T20:11:16.095Z,20.72
2018-06-19T20:13:45.358Z,20.70
2018-06-19T20:16:14.268Z,20.68
2018-06-19T20:18:43.394Z,20.68
2018-06-19T20:21:12.466Z,20.62
2018-06-19T20:23:41.480Z,20.59
2018-06-19T20:26:10.383Z,20.57
2018-06-19T20:28:39.259Z,20.56
2018-06-19T20:31:08.196Z,20.55
2018-06-19T20:33:37.142Z,20.52
2018-06-19T20:37:02.701Z,20.50
2018-06-19T20:39:29.551Z,20.46
2018-06-19T20:41:58.483Z,20.47
2018-06-19T20:44:27.439Z,20.47
2018-06-19T20:46:56.269Z,20.47
2018-06-19T20:49:25.231Z,20.48
2018-06-19T20:51:54.231Z,20.48
2018-06-19T20:54:23.233Z,20.46
2018-06-19T20:56:54.508Z,20.43
2018-06-19T20:59:23.570Z,20.45
2018-06-19T21:01:52.570Z,20.45
2018-06-19T21:04:24.756Z,20.43
2018-06-19T21:06:53.855Z,20.42
2018-06-19T21:09:24.669Z,20.40
2018-06-19T21:11:51.993Z,20.43
2018-06-19T21:14:20.924Z,20.43
2018-06-19T21:16:49.961Z,20.42
2018-06-19T21:19:25.027Z,20.39
2018-06-19T21:21:54.131Z,20.36
2018-06-19T21:24:24.896Z,20.37
2018-06-19T21:26:52.391Z,20.38
2018-06-19T21:29:21.450Z,20.37
2018-06-19T21:31:50.391Z,20.34
2018-06-19T21:34:19.368Z,20.33
2018-06-19T21:36:48.394Z,20.27
2018-06-19T21:39:17.443Z,20.23
2018-06-19T21:41:46.394Z,20.21
2018-06-19T21:44:15.305Z,20.22
2018-06-19T21:46:44.800Z,20.25
2018-06-19T21:49:16.453Z,20.21
2018-06-19T21:51:47.924Z,20.25
2018-06-19T21:54:17.765Z,20.25
2018-06-19T21:56:46.750Z,20.27
2018-06-19T21:59:15.657Z,20.27
2018-06-19T22:01:44.671Z,20.17
2018-06-19T22:04:13.540Z,20.14
2018-06-19T22:06:42.466Z,20.14
2018-06-19T22:09:11.731Z,20.14
2018-06-19T22:11:41.002Z,20.13
2018-06-19T22:14:10.132Z,20.13
2018-06-19T22:16:39.105Z,20.12
2018-06-19T22:19:08.047Z,20.07
2018-06-19T22:21:38.160Z,20.08
2018-06-19T22:24:07.136Z,20.09
2018-06-19T22:26:36.041Z,20.10
2018-06-19T22:29:05.044Z,20.11
2018-06-19T22:31:34.032Z,20.08
2018-06-19T22:34:05.431Z,20.04
2018-06-19T22:36:34.481Z,19.96
2018-06-19T22:39:03.840Z,19.95
2018-06-19T22:41:32.761Z,19.97
2018-06-19T22:44:01.909Z,20.30
2018-06-19T22:46:30.748Z,20.11
2018-06-19T22:49:00.564Z,20.09
2018-06-19T22:51:31.912Z,20.05
2018-06-19T22:54:02.047Z,20.03
2018-06-19T22:56:32.960Z,19.98
2018-06-19T22:58:59.838Z,19.84
2018-06-19T23:01:28.812Z,19.83
2018-06-19T23:03:57.738Z,19.80
2018-06-19T23:06:26.652Z,19.76
2018-06-19T23:08:55.632Z,19.69
2018-06-19T23:11:24.534Z,19.68
2018-06-19T23:13:53.510Z,19.63
2018-06-19T23:16:22.433Z,19.60
2018-06-19T23:18:51.354Z,19.58
2018-06-19T23:21:20.224Z,19.56
2018-06-19T23:23:50.811Z,19.51
2018-06-19T23:26:19.728Z,19.45
2018-06-19T23:28:48.624Z,19.39
2018-06-19T23:31:17.622Z,19.32
2018-06-19T23:33:46.524Z,19.25
2018-06-19T23:36:15.418Z,19.15
2018-06-19T23:38:44.426Z,19.07
2018-06-19T23:41:13.381Z,19.00
2018-06-19T23:43:42.403Z,18.96
2018-06-19T23:46:11.386Z,18.92
2018-06-19T23:48:40.964Z,18.89
2018-06-19T23:51:10.877Z,18.85
2018-06-19T23:53:39.755Z,18.81
2018-06-19T23:56:08.688Z,18.75
2018-06-19T23:58:37.737Z,18.70
